sensor_id;sensor_type;location;lat;lon;timestamp;pressure;altitude;pressure_sealevel;temperature;humidity
2339;BME280;1180;51.438;6.978;2023-08-31T00:02:03;99545.47;;;16.07;93.76
2339;BME280;1180;51.438;6.978;2023-08-31T00:04:29;99532.13;;;16.12;94.21
2339;BME280;1180;51.438;6.978;2023-08-31T00:06:55;99528.28;;;16.16;93.75
2339;BME280;1180;51.438;6.978;2023-08-31T00:09:23;99525.38;;;16.19;93.57
2339;BME280;1180;51.438;6.978;2023-08-31T00:11:50;99530.47;;;16.11;94.64
2339;BME280;1180;51.438;6.978;2023-08-31T00:14:16;99524.34;;;16.12;94.82
2339;BME280;1180;51.438;6.978;2023-08-31T00:16:42;99524.34;;;16.12;94.37
2339;BME280;1180;51.438;6.978;2023-08-31T00:19:08;99527.53;;;16.06;94.70
2339;BME280;1180;51.438;6.978;2023-08-31T00:21:34;99535.88;;;15.99;94.57
2339;BME280;1180;51.438;6.978;2023-08-31T00:23:59;99540.88;;;16.01;94.50
2339;BME280;1180;51.438;6.978;2023-08-31T00:26:25;99537.34;;;16.02;94.24
2339;BME280;1180;51.438;6.978;2023-08-31T00:28:50;99544.97;;;16.03;94.12
2339;BME280;1180;51.438;6.978;2023-08-31T00:31:16;99533.41;;;15.98;93.57
2339;BME280;1180;51.438;6.978;2023-08-31T00:33:41;99541.16;;;15.98;94.54
2339;BME280;1180;51.438;6.978;2023-08-31T00:36:08;99539.13;;;16.01;95.16
2339;BME280;1180;51.438;6.978;2023-08-31T00:38:34;99545.25;;;16.00;95.29
2339;BME280;1180;51.438;6.978;2023-08-31T00:41:00;99546.50;;;15.96;94.64
2339;BME280;1180;51.438;6.978;2023-08-31T00:43:25;99545.44;;;15.89;94.59
2339;BME280;1180;51.438;6.978;2023-08-31T00:45:54;99545.97;;;15.93;94.25
2339;BME280;1180;51.438;6.978;2023-08-31T00:48:24;99542.66;;;16.00;94.23
2339;BME280;1180;51.438;6.978;2023-08-31T00:50:50;99550.16;;;16.03;93.53
2339;BME280;1180;51.438;6.978;2023-08-31T00:53:17;99541.72;;;16.01;94.15
2339;BME280;1180;51.438;6.978;2023-08-31T00:55:46;99543.91;;;15.96;93.73
2339;BME280;1180;51.438;6.978;2023-08-31T00:58:13;99545.53;;;15.97;94.11
2339;BME280;1180;51.438;6.978;2023-08-31T01:09:02;99543.53;;;15.91;93.84
2339;BME280;1180;51.438;6.978;2023-08-31T01:14:12;99547.47;;;15.85;93.47
2339;BME280;1180;51.438;6.978;2023-08-31T01:16:42;99544.47;;;15.90;93.39
2339;BME280;1180;51.438;6.978;2023-08-31T01:21:47;99551.44;;;15.90;92.33
2339;BME280;1180;51.438;6.978;2023-08-31T01:24:16;99548.44;;;15.84;93.15
2339;BME280;1180;51.438;6.978;2023-08-31T01:26:42;99540.25;;;15.89;93.50
2339;BME280;1180;51.438;6.978;2023-08-31T01:29:08;99544.06;;;15.85;93.68
2339;BME280;1180;51.438;6.978;2023-08-31T01:31:42;99539.16;;;15.82;94.59
2339;BME280;1180;51.438;6.978;2023-08-31T01:34:08;99535.53;;;15.74;94.15
2339;BME280;1180;51.438;6.978;2023-08-31T01:36:37;99544.53;;;15.70;94.09
2339;BME280;1180;51.438;6.978;2023-08-31T01:39:14;99548.75;;;15.71;93.94
2339;BME280;1180;51.438;6.978;2023-08-31T01:41:43;99547.13;;;15.70;93.69
2339;BME280;1180;51.438;6.978;2023-08-31T01:44:12;99544.00;;;15.67;93.36
2339;BME280;1180;51.438;6.978;2023-08-31T01:46:45;99546.44;;;15.68;93.55
2339;BME280;1180;51.438;6.978;2023-08-31T01:49:11;99544.16;;;15.65;94.07
2339;BME280;1180;51.438;6.978;2023-08-31T01:51:36;99547.81;;;15.63;93.43
2339;BME280;1180;51.438;6.978;2023-08-31T01:54:02;99552.03;;;15.64;93.42
2339;BME280;1180;51.438;6.978;2023-08-31T01:56:28;99555.56;;;15.63;93.43
2339;BME280;1180;51.438;6.978;2023-08-31T01:58:54;99555.06;;;15.59;93.84
2339;BME280;1180;51.438;6.978;2023-08-31T02:01:19;99568.00;;;15.59;93.33
2339;BME280;1180;51.438;6.978;2023-08-31T02:03:45;99568.41;;;15.54;93.70
2339;BME280;1180;51.438;6.978;2023-08-31T02:06:11;99567.84;;;15.51;93.22
2339;BME280;1180;51.438;6.978;2023-08-31T02:08:37;99569.91;;;15.47;93.36
2339;BME280;1180;51.438;6.978;2023-08-31T02:11:03;99574.41;;;15.45;93.52
2339;BME280;1180;51.438;6.978;2023-08-31T02:13:30;99575.50;;;15.42;93.84
2339;BME280;1180;51.438;6.978;2023-08-31T02:15:55;99570.59;;;15.49;93.87
2339;BME280;1180;51.438;6.978;2023-08-31T02:18:21;99573.88;;;15.41;93.81
2339;BME280;1180;51.438;6.978;2023-08-31T02:20:48;99568.81;;;15.40;94.51
2339;BME280;1180;51.438;6.978;2023-08-31T02:23:17;99567.75;;;15.42;94.43
2339;BME280;1180;51.438;6.978;2023-08-31T02:25:42;99570.19;;;15.44;94.32
2339;BME280;1180;51.438;6.978;2023-08-31T02:28:08;99566.13;;;15.41;94.28
2339;BME280;1180;51.438;6.978;2023-08-31T02:30:34;99559.59;;;15.37;94.24
2339;BME280;1180;51.438;6.978;2023-08-31T02:32:59;99568.16;;;15.38;94.10
2339;BME280;1180;51.438;6.978;2023-08-31T02:35:25;99574.28;;;15.37;94.12
2339;BME280;1180;51.438;6.978;2023-08-31T02:37:50;99572.38;;;15.39;94.33
2339;BME280;1180;51.438;6.978;2023-08-31T02:40:16;99568.03;;;15.39;94.43
2339;BME280;1180;51.438;6.978;2023-08-31T02:42:41;99570.72;;;15.38;94.73
2339;BME280;1180;51.438;6.978;2023-08-31T02:45:08;99561.50;;;15.35;94.39
2339;BME280;1180;51.438;6.978;2023-08-31T02:47:34;99566.97;;;15.32;94.82
2339;BME280;1180;51.438;6.978;2023-08-31T02:49:59;99567.75;;;15.33;94.69
2339;BME280;1180;51.438;6.978;2023-08-31T02:52:25;99566.28;;;15.30;94.69
2339;BME280;1180;51.438;6.978;2023-08-31T02:54:51;99564.66;;;15.29;94.73
2339;BME280;1180;51.438;6.978;2023-08-31T02:57:17;99571.72;;;15.27;94.42
2339;BME280;1180;51.438;6.978;2023-08-31T02:59:45;99572.53;;;15.27;94.60
2339;BME280;1180;51.438;6.978;2023-08-31T03:02:12;99575.00;;;15.29;95.06
2339;BME280;1180;51.438;6.978;2023-08-31T03:04:37;99574.31;;;15.27;94.73
2339;BME280;1180;51.438;6.978;2023-08-31T03:07:06;99569.16;;;15.27;94.78
2339;BME280;1180;51.438;6.978;2023-08-31T03:09:33;99564.09;;;15.25;95.15
2339;BME280;1180;51.438;6.978;2023-08-31T03:11:59;99573.88;;;15.22;94.96
2339;BME280;1180;51.438;6.978;2023-08-31T03:14:24;99576.34;;;15.23;94.74
2339;BME280;1180;51.438;6.978;2023-08-31T03:16:52;99567.75;;;15.23;94.98
2339;BME280;1180;51.438;6.978;2023-08-31T03:19:19;99571.97;;;15.24;95.04
2339;BME280;1180;51.438;6.978;2023-08-31T03:21:44;99566.00;;;15.23;95.67
2339;BME280;1180;51.438;6.978;2023-08-31T03:24:10;99574.56;;;15.24;95.63
2339;BME280;1180;51.438;6.978;2023-08-31T03:26:36;99580.16;;;15.19;96.08
2339;BME280;1180;51.438;6.978;2023-08-31T03:29:01;99580.84;;;15.21;95.69
2339;BME280;1180;51.438;6.978;2023-08-31T03:31:27;99577.84;;;15.26;95.09
2339;BME280;1180;51.438;6.978;2023-08-31T03:33:53;99574.56;;;15.24;95.00
2339;BME280;1180;51.438;6.978;2023-08-31T03:36:18;99577.69;;;15.27;94.75
2339;BME280;1180;51.438;6.978;2023-08-31T03:38:44;99582.88;;;15.27;94.41
2339;BME280;1180;51.438;6.978;2023-08-31T03:41:10;99576.63;;;15.20;94.86
2339;BME280;1180;51.438;6.978;2023-08-31T03:43:36;99576.47;;;15.22;94.76
2339;BME280;1180;51.438;6.978;2023-08-31T03:46:01;99575.69;;;15.21;94.82
2339;BME280;1180;51.438;6.978;2023-08-31T03:48:28;99583.56;;;15.20;95.33
2339;BME280;1180;51.438;6.978;2023-08-31T03:50:54;99576.34;;;15.23;95.69
2339;BME280;1180;51.438;6.978;2023-08-31T03:53:20;99580.16;;;15.19;95.45
2339;BME280;1180;51.438;6.978;2023-08-31T03:55:46;99572.97;;;15.13;94.78
2339;BME280;1180;51.438;6.978;2023-08-31T03:58:12;99571.84;;;15.15;95.47
2339;BME280;1180;51.438;6.978;2023-08-31T04:00:38;99570.78;;;15.18;95.39
2339;BME280;1180;51.438;6.978;2023-08-31T04:03:04;99574.84;;;15.21;95.29
2339;BME280;1180;51.438;6.978;2023-08-31T04:05:33;99575.56;;;15.13;95.33
2339;BME280;1180;51.438;6.978;2023-08-31T04:07:59;99581.53;;;15.13;95.57
2339;BME280;1180;51.438;6.978;2023-08-31T04:10:25;99578.25;;;15.11;95.66
2339;BME280;1180;51.438;6.978;2023-08-31T04:12:52;99581.53;;;15.13;95.69
2339;BME280;1180;51.438;6.978;2023-08-31T04:15:19;99587.78;;;15.11;95.20
2339;BME280;1180;51.438;6.978;2023-08-31T04:17:44;99580.84;;;15.01;95.69
2339;BME280;1180;51.438;6.978;2023-08-31T04:20:11;99582.75;;;14.99;96.26
2339;BME280;1180;51.438;6.978;2023-08-31T04:22:37;99583.03;;;15.06;95.52
2339;BME280;1180;51.438;6.978;2023-08-31T04:25:04;99583.56;;;15.00;95.74
2339;BME280;1180;51.438;6.978;2023-08-31T04:27:29;99576.22;;;14.95;95.99
2339;BME280;1180;51.438;6.978;2023-08-31T04:30:00;99582.88;;;14.88;96.21
2339;BME280;1180;51.438;6.978;2023-08-31T04:32:26;99584.13;;;14.94;96.50
2339;BME280;1180;51.438;6.978;2023-08-31T04:34:52;99587.66;;;14.93;96.80
2339;BME280;1180;51.438;6.978;2023-08-31T04:37:18;99581.66;;;14.92;96.59
2339;BME280;1180;51.438;6.978;2023-08-31T04:39:43;99592.00;;;14.92;96.67
2339;BME280;1180;51.438;6.978;2023-08-31T04:42:09;99584.38;;;14.91;96.41
2339;BME280;1180;51.438;6.978;2023-08-31T04:44:35;99590.09;;;14.94;96.13
2339;BME280;1180;51.438;6.978;2023-08-31T04:47:01;99598.13;;;14.91;96.35
2339;BME280;1180;51.438;6.978;2023-08-31T04:49:27;99594.47;;;14.94;96.41
2339;BME280;1180;51.438;6.978;2023-08-31T04:51:52;99602.47;;;14.91;96.86
2339;BME280;1180;51.438;6.978;2023-08-31T04:54:18;99605.03;;;14.91;96.90
2339;BME280;1180;51.438;6.978;2023-08-31T04:56:44;99611.56;;;14.85;97.41
2339;BME280;1180;51.438;6.978;2023-08-31T04:59:10;99620.97;;;14.86;97.81
2339;BME280;1180;51.438;6.978;2023-08-31T05:01:36;99624.06;;;14.90;97.68
2339;BME280;1180;51.438;6.978;2023-08-31T05:04:02;99622.19;;;14.92;97.59
2339;BME280;1180;51.438;6.978;2023-08-31T05:06:28;99621.25;;;14.93;97.73
2339;BME280;1180;51.438;6.978;2023-08-31T05:08:54;99629.53;;;14.96;97.44
2339;BME280;1180;51.438;6.978;2023-08-31T05:11:20;99631.03;;;14.99;97.82
2339;BME280;1180;51.438;6.978;2023-08-31T05:13:47;99631.72;;;15.01;97.69
2339;BME280;1180;51.438;6.978;2023-08-31T05:16:14;99634.44;;;15.09;98.07
2339;BME280;1180;51.438;6.978;2023-08-31T05:18:41;99642.31;;;15.08;98.04
2339;BME280;1180;51.438;6.978;2023-08-31T05:21:07;99637.84;;;15.10;97.67
2339;BME280;1180;51.438;6.978;2023-08-31T05:23:32;99643.69;;;15.02;97.84
2339;BME280;1180;51.438;6.978;2023-08-31T05:25:58;99649.13;;;15.09;97.01
2339;BME280;1180;51.438;6.978;2023-08-31T05:28:24;99652.53;;;15.09;97.03
2339;BME280;1180;51.438;6.978;2023-08-31T05:30:51;99645.72;;;15.08;96.85
2339;BME280;1180;51.438;6.978;2023-08-31T05:33:20;99644.38;;;15.04;97.75
2339;BME280;1180;51.438;6.978;2023-08-31T05:35:47;99652.38;;;15.01;97.83
2339;BME280;1180;51.438;6.978;2023-08-31T05:38:13;99648.84;;;15.02;97.39
2339;BME280;1180;51.438;6.978;2023-08-31T05:40:39;99653.75;;;15.05;97.55
2339;BME280;1180;51.438;6.978;2023-08-31T05:43:05;99659.88;;;15.14;97.48
2339;BME280;1180;51.438;6.978;2023-08-31T05:45:34;99659.72;;;15.15;97.09
2339;BME280;1180;51.438;6.978;2023-08-31T05:48:00;99656.19;;;15.16;97.09
2339;BME280;1180;51.438;6.978;2023-08-31T05:50:26;99657.81;;;15.18;98.05
2339;BME280;1180;51.438;6.978;2023-08-31T05:52:52;99664.63;;;15.19;97.25
2339;BME280;1180;51.438;6.978;2023-08-31T05:55:17;99660.41;;;15.18;97.46
2339;BME280;1180;51.438;6.978;2023-08-31T05:57:43;99661.25;;;15.18;97.31
2339;BME280;1180;51.438;6.978;2023-08-31T06:00:09;99666.53;;;15.16;96.89
2339;BME280;1180;51.438;6.978;2023-08-31T06:02:34;99668.03;;;15.19;96.88
2339;BME280;1180;51.438;6.978;2023-08-31T06:05:01;99667.75;;;15.22;97.07
2339;BME280;1180;51.438;6.978;2023-08-31T06:07:27;99661.63;;;15.23;96.96
2339;BME280;1180;51.438;6.978;2023-08-31T06:09:55;99676.88;;;15.26;97.04
2339;BME280;1180;51.438;6.978;2023-08-31T06:12:20;99674.97;;;15.28;97.18
2339;BME280;1180;51.438;6.978;2023-08-31T06:14:46;99686.81;;;15.31;96.56
2339;BME280;1180;51.438;6.978;2023-08-31T06:17:12;99682.34;;;15.33;96.80
2339;BME280;1180;51.438;6.978;2023-08-31T06:19:39;99683.00;;;15.35;96.96
2339;BME280;1180;51.438;6.978;2023-08-31T06:22:05;99693.19;;;15.37;96.69
2339;BME280;1180;51.438;6.978;2023-08-31T06:24:30;99692.66;;;15.33;96.89
2339;BME280;1180;51.438;6.978;2023-08-31T06:26:57;99700.84;;;15.38;97.51
2339;BME280;1180;51.438;6.978;2023-08-31T06:29:22;99699.72;;;15.41;97.06
2339;BME280;1180;51.438;6.978;2023-08-31T06:31:48;99696.91;;;15.44;96.75
2339;BME280;1180;51.438;6.978;2023-08-31T06:34:13;99704.78;;;15.42;97.11
2339;BME280;1180;51.438;6.978;2023-08-31T06:36:39;99707.75;;;15.48;97.33
2339;BME280;1180;51.438;6.978;2023-08-31T06:39:06;99702.75;;;15.46;97.29
2339;BME280;1180;51.438;6.978;2023-08-31T06:41:31;99707.25;;;15.44;97.69
2339;BME280;1180;51.438;6.978;2023-08-31T06:43:57;99707.09;;;15.45;98.14
2339;BME280;1180;51.438;6.978;2023-08-31T06:46:22;99705.31;;;15.56;97.63
2339;BME280;1180;51.438;6.978;2023-08-31T06:48:47;99697.97;;;15.61;97.58
2339;BME280;1180;51.438;6.978;2023-08-31T06:51:14;99703.28;;;15.69;98.22
2339;BME280;1180;51.438;6.978;2023-08-31T06:53:40;99699.16;;;15.77;97.28
2339;BME280;1180;51.438;6.978;2023-08-31T06:56:06;99697.69;;;15.64;96.91
2339;BME280;1180;51.438;6.978;2023-08-31T06:58:31;99708.72;;;15.66;97.21
2339;BME280;1180;51.438;6.978;2023-08-31T07:00:56;99701.75;;;15.77;97.26
2339;BME280;1180;51.438;6.978;2023-08-31T07:03:21;99703.38;;;15.87;96.76
2339;BME280;1180;51.438;6.978;2023-08-31T07:05:47;99706.25;;;15.94;97.02
2339;BME280;1180;51.438;6.978;2023-08-31T07:08:12;99708.97;;;16.02;96.25
2339;BME280;1180;51.438;6.978;2023-08-31T07:10:38;99713.47;;;16.00;96.25
2339;BME280;1180;51.438;6.978;2023-08-31T07:13:04;99714.94;;;16.03;95.58
2339;BME280;1180;51.438;6.978;2023-08-31T07:15:30;99716.03;;;16.10;95.59
2339;BME280;1180;51.438;6.978;2023-08-31T07:17:55;99714.34;;;16.19;94.77
2339;BME280;1180;51.438;6.978;2023-08-31T07:20:21;99715.97;;;16.20;95.60
2339;BME280;1180;51.438;6.978;2023-08-31T07:22:46;99718.72;;;16.19;94.95
2339;BME280;1180;51.438;6.978;2023-08-31T07:25:12;99716.66;;;16.22;95.69
2339;BME280;1180;51.438;6.978;2023-08-31T07:27:37;99721.53;;;16.35;95.47
2339;BME280;1180;51.438;6.978;2023-08-31T07:30:04;99721.91;;;16.40;94.41
2339;BME280;1180;51.438;6.978;2023-08-31T07:32:30;99717.66;;;16.49;94.33
2339;BME280;1180;51.438;6.978;2023-08-31T07:34:56;99722.13;;;16.57;93.60
2339;BME280;1180;51.438;6.978;2023-08-31T07:37:21;99735.75;;;16.59;93.09
2339;BME280;1180;51.438;6.978;2023-08-31T07:39:47;99719.69;;;16.55;92.86
2339;BME280;1180;51.438;6.978;2023-08-31T07:42:12;99724.25;;;16.71;92.53
2339;BME280;1180;51.438;6.978;2023-08-31T07:44:37;99723.84;;;16.66;91.85
2339;BME280;1180;51.438;6.978;2023-08-31T07:47:03;99729.41;;;16.71;92.25
2339;BME280;1180;51.438;6.978;2023-08-31T07:49:28;99733.09;;;16.79;91.82
2339;BME280;1180;51.438;6.978;2023-08-31T07:51:54;99725.25;;;16.88;91.42
2339;BME280;1180;51.438;6.978;2023-08-31T07:54:23;99736.53;;;16.97;91.58
2339;BME280;1180;51.438;6.978;2023-08-31T07:56:49;99741.00;;;17.05;91.59
2339;BME280;1180;51.438;6.978;2023-08-31T07:59:14;99738.06;;;17.00;91.62
2339;BME280;1180;51.438;6.978;2023-08-31T08:01:41;99742.16;;;16.93;91.22
2339;BME280;1180;51.438;6.978;2023-08-31T08:04:06;99748.25;;;17.01;91.30
2339;BME280;1180;51.438;6.978;2023-08-31T08:06:32;99753.25;;;17.13;90.98
2339;BME280;1180;51.438;6.978;2023-08-31T08:08:57;99756.34;;;17.16;90.08
2339;BME280;1180;51.438;6.978;2023-08-31T08:11:23;99745.03;;;17.17;91.06
2339;BME280;1180;51.438;6.978;2023-08-31T08:13:49;99748.50;;;17.26;91.00
2339;BME280;1180;51.438;6.978;2023-08-31T08:16:14;99754.53;;;17.27;89.46
2339;BME280;1180;51.438;6.978;2023-08-31T08:18:40;99758.00;;;17.36;89.92
2339;BME280;1180;51.438;6.978;2023-08-31T08:21:06;99759.56;;;17.46;89.86
2339;BME280;1180;51.438;6.978;2023-08-31T08:23:31;99752.09;;;17.43;90.20
2339;BME280;1180;51.438;6.978;2023-08-31T08:25:57;99756.31;;;17.44;90.17
2339;BME280;1180;51.438;6.978;2023-08-31T08:28:25;99769.19;;;17.36;89.79
2339;BME280;1180;51.438;6.978;2023-08-31T08:30:50;99751.66;;;17.48;88.90
2339;BME280;1180;51.438;6.978;2023-08-31T08:33:15;99768.53;;;17.52;90.15
2339;BME280;1180;51.438;6.978;2023-08-31T08:35:41;99761.44;;;17.54;90.71
2339;BME280;1180;51.438;6.978;2023-08-31T08:38:06;99768.84;;;17.67;90.33
2339;BME280;1180;51.438;6.978;2023-08-31T08:40:34;99765.88;;;17.80;89.48
2339;BME280;1180;51.438;6.978;2023-08-31T08:43:06;99768.94;;;17.84;89.54
2339;BME280;1180;51.438;6.978;2023-08-31T08:45:42;99769.22;;;17.99;87.95
2339;BME280;1180;51.438;6.978;2023-08-31T08:48:09;99768.75;;;17.95;87.50
2339;BME280;1180;51.438;6.978;2023-08-31T08:50:36;99768.38;;;18.08;87.07
2339;BME280;1180;51.438;6.978;2023-08-31T08:53:05;99766.88;;;18.06;86.28
2339;BME280;1180;51.438;6.978;2023-08-31T08:55:32;99766.28;;;18.12;85.79
2339;BME280;1180;51.438;6.978;2023-08-31T08:57:58;99764.53;;;18.21;86.76
2339;BME280;1180;51.438;6.978;2023-08-31T09:00:29;99769.66;;;18.30;87.12
2339;BME280;1180;51.438;6.978;2023-08-31T09:02:55;99763.97;;;18.35;86.77
2339;BME280;1180;51.438;6.978;2023-08-31T09:05:22;99772.94;;;18.41;84.58
2339;BME280;1180;51.438;6.978;2023-08-31T09:08:07;99774.25;;;18.45;85.35
2339;BME280;1180;51.438;6.978;2023-08-31T09:10:44;99770.03;;;18.44;83.85
2339;BME280;1180;51.438;6.978;2023-08-31T09:13:11;99773.31;;;18.54;84.44
2339;BME280;1180;51.438;6.978;2023-08-31T09:15:43;99772.06;;;18.58;83.22
2339;BME280;1180;51.438;6.978;2023-08-31T09:18:29;99770.72;;;18.54;81.28
2339;BME280;1180;51.438;6.978;2023-08-31T09:20:57;99770.81;;;18.71;80.76
2339;BME280;1180;51.438;6.978;2023-08-31T09:23:22;99777.00;;;18.78;80.17
2339;BME280;1180;51.438;6.978;2023-08-31T09:25:49;99771.84;;;18.86;79.54
2339;BME280;1180;51.438;6.978;2023-08-31T09:28:16;99772.91;;;19.02;79.64
2339;BME280;1180;51.438;6.978;2023-08-31T09:30:46;99776.19;;;19.12;78.99
2339;BME280;1180;51.438;6.978;2023-08-31T09:33:17;99775.53;;;19.18;78.17
2339;BME280;1180;51.438;6.978;2023-08-31T09:35:52;99778.78;;;19.20;76.46
2339;BME280;1180;51.438;6.978;2023-08-31T09:38:18;99776.56;;;19.26;76.98
2339;BME280;1180;51.438;6.978;2023-08-31T09:40:43;99782.25;;;19.38;77.13
2339;BME280;1180;51.438;6.978;2023-08-31T09:43:09;99787.34;;;19.56;77.43
2339;BME280;1180;51.438;6.978;2023-08-31T09:45:35;99785.19;;;19.68;76.04
2339;BME280;1180;51.438;6.978;2023-08-31T09:48:03;99778.69;;;19.63;73.09
2339;BME280;1180;51.438;6.978;2023-08-31T09:50:30;99779.53;;;19.72;75.16
2339;BME280;1180;51.438;6.978;2023-08-31T09:53:02;99782.78;;;19.66;75.09
2339;BME280;1180;51.438;6.978;2023-08-31T09:55:29;99774.63;;;19.77;73.25
2339;BME280;1180;51.438;6.978;2023-08-31T09:57:56;99786.19;;;19.83;73.26
2339;BME280;1180;51.438;6.978;2023-08-31T10:00:25;99786.50;;;19.72;70.83
2339;BME280;1180;51.438;6.978;2023-08-31T10:02:52;99780.50;;;19.80;69.81
2339;BME280;1180;51.438;6.978;2023-08-31T10:05:19;99780.66;;;19.78;70.77
2339;BME280;1180;51.438;6.978;2023-08-31T10:07:45;99798.25;;;19.76;71.60
2339;BME280;1180;51.438;6.978;2023-08-31T10:10:12;99789.47;;;19.77;69.47
2339;BME280;1180;51.438;6.978;2023-08-31T10:12:38;99793.03;;;19.76;69.95
2339;BME280;1180;51.438;6.978;2023-08-31T10:15:05;99788.78;;;19.67;69.63
2339;BME280;1180;51.438;6.978;2023-08-31T10:17:31;99798.25;;;19.76;70.31
2339;BME280;1180;51.438;6.978;2023-08-31T10:19:57;99795.78;;;19.83;69.94
2339;BME280;1180;51.438;6.978;2023-08-31T10:22:23;99790.09;;;19.87;68.53
2339;BME280;1180;51.438;6.978;2023-08-31T10:25:01;99791.44;;;19.91;68.03
2339;BME280;1180;51.438;6.978;2023-08-31T10:27:35;99795.66;;;19.76;68.23
2339;BME280;1180;51.438;6.978;2023-08-31T10:30:33;99801.00;;;19.83;69.30
2339;BME280;1180;51.438;6.978;2023-08-31T10:35:58;99794.66;;;20.02;65.58
2339;BME280;1180;51.438;6.978;2023-08-31T10:38:32;99793.06;;;19.92;65.64
2339;BME280;1180;51.438;6.978;2023-08-31T10:43:26;99786.22;;;20.00;67.80
2339;BME280;1180;51.438;6.978;2023-08-31T10:45:51;99800.03;;;20.09;67.15
2339;BME280;1180;51.438;6.978;2023-08-31T10:48:17;99792.56;;;20.22;66.15
2339;BME280;1180;51.438;6.978;2023-08-31T10:50:45;99789.28;;;20.28;66.86
2339;BME280;1180;51.438;6.978;2023-08-31T10:53:12;99787.66;;;20.11;64.15
2339;BME280;1180;51.438;6.978;2023-08-31T10:55:51;99767.13;;;20.32;65.25
2339;BME280;1180;51.438;6.978;2023-08-31T10:58:17;99773.94;;;20.42;66.59
2339;BME280;1180;51.438;6.978;2023-08-31T11:00:50;99778.81;;;20.45;67.15
2339;BME280;1180;51.438;6.978;2023-08-31T11:03:17;99777.44;;;20.66;67.11
2339;BME280;1180;51.438;6.978;2023-08-31T11:05:52;99784.22;;;20.83;65.26
2339;BME280;1180;51.438;6.978;2023-08-31T11:08:22;99777.53;;;20.89;64.38
2339;BME280;1180;51.438;6.978;2023-08-31T11:10:49;99771.00;;;20.93;64.30
2339;BME280;1180;51.438;6.978;2023-08-31T11:13:21;99780.56;;;21.01;64.04
2339;BME280;1180;51.438;6.978;2023-08-31T11:15:48;99774.38;;;21.02;64.52
2339;BME280;1180;51.438;6.978;2023-08-31T11:18:14;99769.94;;;21.11;61.91
2339;BME280;1180;51.438;6.978;2023-08-31T11:20:43;99771.16;;;20.91;59.65
2339;BME280;1180;51.438;6.978;2023-08-31T11:23:09;99778.31;;;20.98;61.90
2339;BME280;1180;51.438;6.978;2023-08-31T11:25:35;99775.94;;;21.11;64.23
2339;BME280;1180;51.438;6.978;2023-08-31T11:28:03;99763.81;;;21.18;63.06
2339;BME280;1180;51.438;6.978;2023-08-31T11:30:35;99762.69;;;21.21;62.30
2339;BME280;1180;51.438;6.978;2023-08-31T11:33:10;99781.06;;;20.96;62.22
2339;BME280;1180;51.438;6.978;2023-08-31T11:35:38;99771.97;;;20.92;62.58
2339;BME280;1180;51.438;6.978;2023-08-31T11:38:06;99773.78;;;20.91;64.90
2339;BME280;1180;51.438;6.978;2023-08-31T11:40:31;99779.44;;;20.95;65.46
2339;BME280;1180;51.438;6.978;2023-08-31T11:42:58;99771.13;;;21.00;67.09
2339;BME280;1180;51.438;6.978;2023-08-31T11:45:25;99779.03;;;21.15;67.53
2339;BME280;1180;51.438;6.978;2023-08-31T11:47:52;99764.59;;;21.27;67.54
2339;BME280;1180;51.438;6.978;2023-08-31T11:50:19;99769.13;;;21.33;67.14
2339;BME280;1180;51.438;6.978;2023-08-31T11:52:45;99764.16;;;21.24;62.26
2339;BME280;1180;51.438;6.978;2023-08-31T11:55:11;99757.81;;;21.18;60.74
2339;BME280;1180;51.438;6.978;2023-08-31T11:57:37;99765.84;;;21.08;61.48
2339;BME280;1180;51.438;6.978;2023-08-31T12:00:03;99764.09;;;21.00;63.47
2339;BME280;1180;51.438;6.978;2023-08-31T12:02:35;99762.59;;;21.06;63.87
2339;BME280;1180;51.438;6.978;2023-08-31T12:05:01;99767.81;;;21.06;63.64
2339;BME280;1180;51.438;6.978;2023-08-31T12:07:27;99763.28;;;21.00;65.16
2339;BME280;1180;51.438;6.978;2023-08-31T12:09:52;99770.28;;;21.08;64.07
2339;BME280;1180;51.438;6.978;2023-08-31T12:12:21;99771.41;;;21.05;62.10
2339;BME280;1180;51.438;6.978;2023-08-31T12:14:47;99756.81;;;21.19;62.25
2339;BME280;1180;51.438;6.978;2023-08-31T12:17:18;99760.06;;;21.21;63.09
2339;BME280;1180;51.438;6.978;2023-08-31T12:19:44;99762.69;;;21.21;61.56
2339;BME280;1180;51.438;6.978;2023-08-31T12:22:11;99763.03;;;21.18;61.32
2339;BME280;1180;51.438;6.978;2023-08-31T12:24:41;99759.00;;;21.39;62.09
2339;BME280;1180;51.438;6.978;2023-08-31T12:27:08;99764.78;;;21.49;60.89
2339;BME280;1180;51.438;6.978;2023-08-31T12:29:33;99768.66;;;21.53;61.67
2339;BME280;1180;51.438;6.978;2023-08-31T12:31:59;99771.81;;;21.72;59.72
2339;BME280;1180;51.438;6.978;2023-08-31T12:34:25;99770.22;;;21.62;56.84
2339;BME280;1180;51.438;6.978;2023-08-31T12:36:51;99767.56;;;21.71;60.99
2339;BME280;1180;51.438;6.978;2023-08-31T12:39:17;99765.72;;;21.95;61.76
2339;BME280;1180;51.438;6.978;2023-08-31T12:41:43;99758.66;;;22.18;61.51
2339;BME280;1180;51.438;6.978;2023-08-31T12:44:09;99767.59;;;22.39;62.36
2339;BME280;1180;51.438;6.978;2023-08-31T12:46:35;99763.00;;;22.56;61.14
2339;BME280;1180;51.438;6.978;2023-08-31T12:49:01;99762.34;;;22.69;61.00
2339;BME280;1180;51.438;6.978;2023-08-31T12:51:30;99752.25;;;22.66;62.30
2339;BME280;1180;51.438;6.978;2023-08-31T12:53:56;99759.91;;;22.83;62.17
2339;BME280;1180;51.438;6.978;2023-08-31T12:56:22;99765.84;;;22.91;58.79
2339;BME280;1180;51.438;6.978;2023-08-31T12:58:49;99765.13;;;22.83;59.38
2339;BME280;1180;51.438;6.978;2023-08-31T13:01:16;99766.47;;;22.93;61.23
2339;BME280;1180;51.438;6.978;2023-08-31T13:03:41;99762.34;;;23.06;60.69
2339;BME280;1180;51.438;6.978;2023-08-31T13:06:07;99768.09;;;23.16;60.77
2339;BME280;1180;51.438;6.978;2023-08-31T13:08:33;99763.47;;;23.18;60.68
2339;BME280;1180;51.438;6.978;2023-08-31T13:10:58;99765.44;;;23.10;60.09
2339;BME280;1180;51.438;6.978;2023-08-31T13:13:24;99766.13;;;23.03;59.68
2339;BME280;1180;51.438;6.978;2023-08-31T13:15:50;99761.72;;;23.04;59.42
2339;BME280;1180;51.438;6.978;2023-08-31T13:18:16;99759.13;;;23.04;59.63
2339;BME280;1180;51.438;6.978;2023-08-31T13:20:53;99765.44;;;23.10;60.11
2339;BME280;1180;51.438;6.978;2023-08-31T13:23:20;99757.63;;;22.94;55.20
2339;BME280;1180;51.438;6.978;2023-08-31T13:25:46;99763.97;;;23.07;55.66
2339;BME280;1180;51.438;6.978;2023-08-31T13:28:12;99760.16;;;22.88;50.77
2339;BME280;1180;51.438;6.978;2023-08-31T13:30:38;99753.63;;;22.47;52.13
2339;BME280;1180;51.438;6.978;2023-08-31T13:33:04;99753.22;;;22.35;52.00
2339;BME280;1180;51.438;6.978;2023-08-31T13:35:30;99762.63;;;22.44;56.96
2339;BME280;1180;51.438;6.978;2023-08-31T13:37:59;99766.13;;;22.21;54.82
2339;BME280;1180;51.438;6.978;2023-08-31T13:40:25;99759.44;;;22.34;56.00